createdAt,value
2023-01-05T00:01:14.593Z,100396.66
2023-01-05T00:03:41.503Z,100395.72
2023-01-05T00:06:11.276Z,100403.38
2023-01-05T00:08:38.262Z,100412.59
2023-01-05T00:11:25.265Z,100411.31
2023-01-05T00:14:10.713Z,100408.72
2023-01-05T00:16:56.285Z,100416.78
2023-01-05T00:19:41.806Z,100420.59
2023-01-05T00:22:31.365Z,100425.78
2023-01-05T00:25:12.254Z,100423.78
2023-01-05T00:27:43.551Z,100423.03
2023-01-05T00:30:13.553Z,100419.19
2023-01-05T00:32:42.207Z,100410.31
2023-01-05T00:35:10.072Z,100416.13
2023-01-05T00:37:40.790Z,100417.34
2023-01-05T00:40:12.791Z,100412.66
2023-01-05T00:42:39.766Z,100420.69
2023-01-05T00:45:07.816Z,100407.72
2023-01-05T00:47:34.689Z,100408.41
2023-01-05T00:50:01.467Z,100407.66
2023-01-05T00:52:28.160Z,100420.97
2023-01-05T00:54:54.961Z,100415.31
2023-01-05T00:57:21.851Z,100422.16
2023-01-05T00:59:48.676Z,100414.75
2023-01-05T01:02:15.925Z,100399.28
2023-01-05T01:04:42.931Z,100414.03
2023-01-05T01:07:09.733Z,100413.19
2023-01-05T01:09:37.477Z,100406.81
2023-01-05T01:12:04.440Z,100421.56
2023-01-05T01:14:31.264Z,100413.19
2023-01-05T01:16:58.169Z,100416.72
2023-01-05T01:19:27.426Z,100415.91
2023-01-05T01:21:54.614Z,100409.72
2023-01-05T01:24:24.077Z,100422.66
2023-01-05T01:26:50.924Z,100419.44
2023-01-05T01:29:17.678Z,100414.75
2023-01-05T01:31:45.747Z,100424.13
2023-01-05T01:34:12.985Z,100410.22
2023-01-05T01:36:40.738Z,100412.38
2023-01-05T01:39:08.010Z,100415.16
2023-01-05T01:41:37.232Z,100423.59
2023-01-05T01:44:42.576Z,100412.91
2023-01-05T01:47:16.679Z,100415.19
2023-01-05T01:49:43.480Z,100417.41
2023-01-05T01:52:10.225Z,100416.19
2023-01-05T01:54:37.129Z,100418.56
2023-01-05T01:57:05.349Z,100418.91
2023-01-05T01:59:32.208Z,100420.56
2023-01-05T02:02:01.110Z,100418.00
2023-01-05T02:04:30.962Z,100414.66
2023-01-05T02:06:58.227Z,100418.31
2023-01-05T02:09:25.016Z,100419.91
2023-01-05T02:12:06.549Z,100409.28
2023-01-05T02:14:42.287Z,100408.72
2023-01-05T02:17:27.591Z,100403.06
2023-01-05T02:20:22.464Z,100410.22
2023-01-05T02:23:11.667Z,100397.59
2023-01-05T02:26:16.153Z,100400.69
2023-01-05T02:29:09.019Z,100396.91
2023-01-05T02:31:40.277Z,100403.81
2023-01-05T02:34:14.956Z,100396.78
2023-01-05T02:37:18.684Z,100390.53
2023-01-05T02:39:57.909Z,100408.00
2023-01-05T02:42:25.507Z,100389.50
2023-01-05T02:44:52.560Z,100384.81
2023-01-05T02:47:27.660Z,100393.34
2023-01-05T02:50:01.699Z,100396.81
2023-01-05T02:52:38.444Z,100386.19
2023-01-05T02:55:08.170Z,100390.50
2023-01-05T02:57:50.990Z,100385.16
2023-01-05T03:00:27.551Z,100402.03
2023-01-05T03:03:03.166Z,100406.03
2023-01-05T03:05:39.620Z,100401.06
2023-01-05T03:08:07.146Z,100400.25
2023-01-05T03:11:06.236Z,100389.88
2023-01-05T03:13:44.124Z,100408.47
2023-01-05T03:16:21.657Z,100394.25
2023-01-05T03:19:10.245Z,100399.34
2023-01-05T03:21:55.589Z,100411.34
2023-01-05T03:24:42.055Z,100404.25
2023-01-05T03:27:30.074Z,100399.34
2023-01-05T03:30:18.403Z,100397.97
2023-01-05T03:33:14.777Z,100401.78
2023-01-05T03:35:43.007Z,100396.31
2023-01-05T03:38:30.995Z,100399.88
2023-01-05T03:41:01.456Z,100401.47
2023-01-05T03:43:28.983Z,100403.97
2023-01-05T03:45:57.983Z,100399.50
2023-01-05T03:48:28.748Z,100399.19
2023-01-05T03:50:55.679Z,100389.28
2023-01-05T03:53:24.394Z,100398.81
2023-01-05T03:55:51.106Z,100405.38
2023-01-05T03:58:18.028Z,100406.59
2023-01-05T04:00:47.855Z,100399.84
2023-01-05T04:03:17.101Z,100403.19
2023-01-05T04:05:43.825Z,100407.66
2023-01-05T04:08:11.402Z,100416.66
2023-01-05T04:10:38.562Z,100426.91
2023-01-05T04:13:05.312Z,100404.09
2023-01-05T04:15:33.216Z,100427.09
2023-01-05T04:18:02.297Z,100426.03
2023-01-05T04:20:29.173Z,100427.31
2023-01-05T04:22:55.906Z,100433.69
2023-01-05T04:25:23.504Z,100440.56
2023-01-05T04:27:50.255Z,100436.28
2023-01-05T04:30:18.615Z,100436.06
2023-01-05T04:32:46.831Z,100437.25
2023-01-05T04:35:15.529Z,100453.44
2023-01-05T04:37:43.701Z,100452.34
2023-01-05T04:40:11.160Z,100433.03
2023-01-05T04:42:53.279Z,100443.53
2023-01-05T04:45:19.989Z,100449.66
2023-01-05T04:47:48.028Z,100446.84
2023-01-05T04:50:18.969Z,100449.19
2023-01-05T04:52:45.839Z,100449.91
2023-01-05T04:55:13.409Z,100462.81
2023-01-05T04:57:41.020Z,100465.25
2023-01-05T05:00:12.091Z,100466.72
2023-01-05T05:02:39.009Z,100458.16
2023-01-05T05:05:09.797Z,100475.09
2023-01-05T05:07:38.571Z,100469.59
2023-01-05T05:10:06.096Z,100474.47
2023-01-05T05:12:33.393Z,100480.13
2023-01-05T05:15:00.212Z,100471.13
2023-01-05T05:17:28.480Z,100476.44
2023-01-05T05:19:55.519Z,100470.69
2023-01-05T05:22:22.493Z,100484.34
2023-01-05T05:24:49.329Z,100489.47
2023-01-05T05:27:16.073Z,100480.50
2023-01-05T05:29:42.789Z,100478.75
2023-01-05T05:32:09.521Z,100471.31
2023-01-05T05:34:36.395Z,100497.84
2023-01-05T05:37:03.069Z,100474.56
2023-01-05T05:39:29.812Z,100477.13
2023-01-05T05:41:56.559Z,100468.25
2023-01-05T05:44:23.223Z,100483.13
2023-01-05T05:46:50.009Z,100478.00
2023-01-05T05:49:16.850Z,100479.00
2023-01-05T05:51:43.561Z,100468.88
2023-01-05T05:54:10.299Z,100479.53
2023-01-05T05:56:37.004Z,100489.94
2023-01-05T05:59:03.685Z,100495.34
2023-01-05T06:01:30.554Z,100494.25
2023-01-05T06:03:57.459Z,100488.66
2023-01-05T06:06:24.191Z,100494.69
2023-01-05T06:08:50.916Z,100493.09
2023-01-05T06:11:17.730Z,100508.97
2023-01-05T06:13:44.539Z,100527.59
2023-01-05T06:16:11.829Z,100518.59
2023-01-05T06:18:38.526Z,100511.19
2023-01-05T06:21:05.370Z,100523.69
2023-01-05T06:23:32.100Z,100521.25
2023-01-05T06:25:59.032Z,100540.66
2023-01-05T06:28:25.759Z,100531.38
2023-01-05T06:30:52.469Z,100524.78
2023-01-05T06:33:19.340Z,100557.53
2023-01-05T06:35:46.112Z,100547.38
2023-01-05T06:38:13.790Z,100547.28
2023-01-05T06:40:44.477Z,100541.84
2023-01-05T06:43:12.231Z,100556.34
2023-01-05T06:45:39.250Z,100552.59
2023-01-05T06:48:06.341Z,100562.88
2023-01-05T06:50:33.262Z,100560.59
2023-01-05T06:53:00.149Z,100565.47
2023-01-05T06:55:27.275Z,100570.47
2023-01-05T06:58:00.270Z,100570.09
2023-01-05T07:00:27.773Z,100577.53
2023-01-05T07:02:54.599Z,100586.81
2023-01-05T07:05:23.393Z,100592.97
2023-01-05T07:07:50.981Z,100590.47
2023-01-05T07:10:17.782Z,100576.88
2023-01-05T07:12:44.517Z,100574.09
2023-01-05T07:15:11.500Z,100586.13
2023-01-05T07:17:38.263Z,100591.16
2023-01-05T07:20:06.143Z,100588.78
2023-01-05T07:22:32.920Z,100586.69
2023-01-05T07:25:00.184Z,100593.63
2023-01-05T07:27:27.424Z,100595.53
2023-01-05T07:29:54.166Z,100611.13
2023-01-05T07:32:20.858Z,100611.22
2023-01-05T07:34:55.485Z,100606.06
2023-01-05T07:37:25.089Z,100622.81
2023-01-05T07:39:52.255Z,100617.16
2023-01-05T07:42:19.014Z,100629.25
2023-01-05T07:44:47.801Z,100622.22
2023-01-05T07:47:20.248Z,100631.28
2023-01-05T07:49:48.629Z,100622.72
2023-01-05T07:52:15.349Z,100625.84
2023-01-05T07:54:42.123Z,100630.31
2023-01-05T07:57:08.968Z,100641.50
2023-01-05T07:59:35.780Z,100646.28
2023-01-05T08:02:03.827Z,100641.53
2023-01-05T08:04:30.824Z,100647.84
2023-01-05T08:06:57.697Z,100655.00
2023-01-05T08:09:42.877Z,100651.13
2023-01-05T08:12:09.789Z,100661.50
2023-01-05T08:14:36.561Z,100673.00
2023-01-05T08:17:03.343Z,100678.84
2023-01-05T08:19:30.093Z,100671.59
2023-01-05T08:21:56.959Z,100674.56
2023-01-05T08:24:23.733Z,100671.44
2023-01-05T08:26:51.159Z,100685.69
2023-01-05T08:29:18.148Z,100695.25
2023-01-05T08:31:44.862Z,100689.16
2023-01-05T08:34:11.797Z,100693.50
2023-01-05T08:36:38.780Z,100718.25
2023-01-05T08:39:06.439Z,100711.59
2023-01-05T08:41:37.519Z,100710.44
2023-01-05T08:44:07.031Z,100716.75
2023-01-05T08:46:35.373Z,100713.69
2023-01-05T08:49:03.818Z,100727.03
2023-01-05T08:51:31.133Z,100721.94
2023-01-05T08:53:58.392Z,100718.34
2023-01-05T08:56:28.127Z,100735.81
2023-01-05T08:58:59.201Z,100720.44
2023-01-05T09:01:26.060Z,100722.47
2023-01-05T09:03:52.938Z,100728.03
2023-01-05T09:06:19.687Z,100739.69
2023-01-05T09:08:46.802Z,100735.78
2023-01-05T09:11:22.294Z,100746.28
2023-01-05T09:13:54.804Z,100750.59
2023-01-05T09:16:49.443Z,100748.66
2023-01-05T09:19:10.918Z,100757.72
2023-01-05T09:21:39.857Z,100753.16
2023-01-05T09:24:12.990Z,100750.31
2023-01-05T09:26:40.969Z,100768.31
2023-01-05T09:29:07.836Z,100771.34
2023-01-05T09:31:34.719Z,100780.16
2023-01-05T09:34:01.612Z,100786.66
2023-01-05T09:36:28.424Z,100785.44
2023-01-05T09:38:56.939Z,100791.19
2023-01-05T09:41:27.388Z,100796.69
2023-01-05T09:43:59.473Z,100804.78
2023-01-05T09:46:37.932Z,100807.25
2023-01-05T09:49:07.014Z,100809.31
2023-01-05T09:51:34.367Z,100804.47
2023-01-05T09:54:01.673Z,100819.38
2023-01-05T09:59:29.820Z,100833.13
2023-01-05T10:02:00.708Z,100826.22
2023-01-05T10:04:30.981Z,100828.22
2023-01-05T10:07:02.996Z,100832.69
2023-01-05T10:09:33.861Z,100843.75
2023-01-05T10:12:28.501Z,100834.41
2023-01-05T10:15:02.264Z,100855.13
2023-01-05T10:17:42.852Z,100844.13
2023-01-05T10:20:17.679Z,100836.28
2023-01-05T10:22:55.506Z,100831.16
2023-01-05T10:25:29.675Z,100850.13
2023-01-05T10:28:24.060Z,100852.28
2023-01-05T10:31:14.470Z,100859.34
2023-01-05T10:33:54.587Z,100856.50
2023-01-05T10:37:09.040Z,100874.41
2023-01-05T10:39:46.845Z,100872.31
2023-01-05T10:42:24.302Z,100874.25
2023-01-05T10:45:03.491Z,100875.94
2023-01-05T10:47:37.324Z,100878.28
2023-01-05T10:50:25.477Z,100872.69
2023-01-05T10:52:53.723Z,100881.19
2023-01-05T10:55:21.051Z,100867.31
2023-01-05T10:57:48.416Z,100888.50
2023-01-05T11:00:19.550Z,100889.97
2023-01-05T11:02:57.987Z,100874.03
2023-01-05T11:05:36.684Z,100882.63
2023-01-05T11:08:06.685Z,100886.66
2023-01-05T11:10:40.455Z,100889.41
2023-01-05T11:13:19.051Z,100882.66
2023-01-05T11:16:08.417Z,100897.56
2023-01-05T11:18:39.988Z,100888.28
2023-01-05T11:21:34.543Z,100884.63
2023-01-05T11:24:02.931Z,100901.03
2023-01-05T11:26:34.959Z,100915.91
2023-01-05T11:29:09.702Z,100910.03
2023-01-05T11:31:43.286Z,100909.72
2023-01-05T11:34:33.072Z,100914.78
2023-01-05T11:37:08.500Z,100916.69
2023-01-05T11:39:49.264Z,100910.00
2023-01-05T11:42:26.114Z,100917.13
2023-01-05T11:44:59.138Z,100917.50
2023-01-05T11:47:43.867Z,100928.06
2023-01-05T11:50:14.201Z,100934.38
2023-01-05T11:53:20.728Z,100930.88
2023-01-05T11:55:59.409Z,100950.53
2023-01-05T11:58:29.032Z,100948.22
2023-01-05T12:01:14.824Z,100948.00
2023-01-05T12:03:58.711Z,100955.81
2023-01-05T12:06:35.008Z,100959.56
2023-01-05T12:09:14.986Z,100949.34
2023-01-05T12:12:23.717Z,100955.81
2023-01-05T12:15:21.945Z,100974.97
2023-01-05T12:18:19.159Z,100978.44
2023-01-05T12:20:57.704Z,100972.88
2023-01-05T12:23:55.496Z,100983.78
2023-01-05T12:26:29.006Z,100988.16
2023-01-05T12:34:01.371Z,101005.09
2023-01-05T12:35:56.168Z,101009.72
2023-01-05T12:38:41.083Z,101003.13
2023-01-05T12:41:45.488Z,101021.63
2023-01-05T12:44:37.354Z,101012.09
2023-01-05T12:47:37.036Z,101022.59
2023-01-05T12:50:25.687Z,101023.16
2023-01-05T12:52:58.546Z,101019.34
2023-01-05T12:55:29.417Z,101023.28
2023-01-05T12:58:03.285Z,101036.56
2023-01-05T13:00:34.420Z,101044.38
2023-01-05T13:03:34.219Z,101057.94
2023-01-05T13:06:02.925Z,101050.16
2023-01-05T13:08:36.449Z,101054.03
2023-01-05T13:11:15.170Z,101051.28
2023-01-05T13:13:46.757Z,101043.47
2023-01-05T13:16:26.308Z,101053.53
2023-01-05T13:19:05.386Z,101069.97
2023-01-05T13:21:32.509Z,101076.75
2023-01-05T13:24:03.520Z,101070.75
2023-01-05T13:26:37.464Z,101083.56
2023-01-05T13:29:05.058Z,101080.59
2023-01-05T13:31:50.058Z,101110.28
2023-01-05T13:34:32.997Z,101100.25
2023-01-05T13:37:39.463Z,101101.88
2023-01-05T13:40:14.563Z,101106.31
2023-01-05T13:42:59.078Z,101121.88
2023-01-05T13:46:02.674Z,101121.91
2023-01-05T13:49:05.082Z,101133.56
2023-01-05T13:52:05.551Z,101136.44
2023-01-05T13:55:00.027Z,101136.75
2023-01-05T13:57:39.419Z,101143.34
2023-01-05T14:00:27.022Z,101154.09
2023-01-05T14:03:07.874Z,101148.19
2023-01-05T14:05:58.606Z,101162.81
2023-01-05T14:08:32.619Z,101159.50
2023-01-05T14:11:15.949Z,101162.78
2023-01-05T14:13:49.844Z,101167.56
2023-01-05T14:16:52.776Z,101165.19
2023-01-05T14:19:25.359Z,101190.53
2023-01-05T14:21:54.132Z,101181.31
2023-01-05T14:24:42.475Z,101189.13
2023-01-05T14:27:13.416Z,101185.41
2023-01-05T14:29:49.143Z,101203.03
2023-01-05T14:32:33.509Z,101209.81
2023-01-05T14:35:05.526Z,101215.88
2023-01-05T14:37:42.229Z,101224.56
2023-01-05T14:40:36.412Z,101232.00
2023-01-05T14:43:08.146Z,101238.44
2023-01-05T14:45:38.026Z,101240.47
2023-01-05T14:48:09.029Z,101254.38
2023-01-05T14:50:40.860Z,101249.03
2023-01-05T14:53:54.037Z,101259.66
2023-01-05T14:56:37.161Z,101271.03
2023-01-05T14:59:24.349Z,101272.84
2023-01-05T15:02:00.978Z,101282.13
2023-01-05T15:04:36.461Z,101279.03
2023-01-05T15:07:21.420Z,101287.88
2023-01-05T15:10:13.265Z,101300.91
2023-01-05T15:12:58.939Z,101310.50
2023-01-05T15:15:40.917Z,101330.13
2023-01-05T15:18:22.728Z,101326.47
2023-01-05T15:21:06.993Z,101337.66
2023-01-05T15:23:54.934Z,101344.59
2023-01-05T15:26:28.065Z,101351.88
2023-01-05T15:29:31.308Z,101343.13
2023-01-05T15:32:02.528Z,101360.59
2023-01-05T15:34:47.621Z,101370.13
2023-01-05T15:37:20.011Z,101364.84
2023-01-05T15:39:51.919Z,101376.06
2023-01-05T15:42:24.365Z,101381.22
2023-01-05T15:44:52.894Z,101384.59
2023-01-05T15:47:20.904Z,101390.72
2023-01-05T15:49:48.197Z,101387.59
2023-01-05T15:52:21.538Z,101388.94
2023-01-05T15:54:57.946Z,101399.88
2023-01-05T15:57:24.754Z,101404.13
2023-01-05T15:59:52.288Z,101404.84
2023-01-05T16:02:25.960Z,101414.00
2023-01-05T16:05:19.957Z,101409.41
2023-01-05T16:07:48.372Z,101420.13
2023-01-05T16:10:26.349Z,101419.50
2023-01-05T16:12:57.358Z,101421.13
2023-01-05T16:15:25.301Z,101406.22
2023-01-05T16:17:55.007Z,101426.19
2023-01-05T16:20:24.601Z,101435.41
2023-01-05T16:23:14.225Z,101446.19
2023-01-05T16:25:48.396Z,101446.09
2023-01-05T16:28:19.593Z,101452.06
2023-01-05T16:30:49.202Z,101450.63
2023-01-05T16:33:35.950Z,101460.44
2023-01-05T16:36:18.734Z,101463.84
2023-01-05T16:38:46.037Z,101476.38
2023-01-05T16:41:13.983Z,101474.69
2023-01-05T16:43:46.938Z,101463.56
2023-01-05T16:46:19.816Z,101470.59
2023-01-05T16:49:19.861Z,101476.41
2023-01-05T16:51:47.799Z,101467.13
2023-01-05T16:54:14.694Z,101477.06
2023-01-05T16:56:58.160Z,101480.38
2023-01-05T16:59:43.964Z,101466.13
2023-01-05T17:02:42.964Z,101488.00
2023-01-05T17:05:10.882Z,101480.06
2023-01-05T17:07:39.370Z,101482.28
2023-01-05T17:10:18.465Z,101490.34
2023-01-05T17:12:50.787Z,101486.69
2023-01-05T17:15:19.730Z,101497.25
2023-01-05T17:17:46.653Z,101491.06
2023-01-05T17:20:13.707Z,101497.91
2023-01-05T17:22:40.536Z,101508.19
2023-01-05T17:25:12.102Z,101504.56
2023-01-05T17:27:38.859Z,101510.75
2023-01-05T17:30:13.637Z,101510.78
2023-01-05T17:32:40.397Z,101519.41
2023-01-05T17:35:07.406Z,101527.38
2023-01-05T17:37:34.129Z,101527.25
2023-01-05T17:40:01.203Z,101530.09
2023-01-05T17:42:43.081Z,101517.88
2023-01-05T17:45:20.473Z,101530.19
2023-01-05T17:47:47.532Z,101525.63
2023-01-05T17:50:17.807Z,101533.47
2023-01-05T17:52:44.986Z,101532.03
2023-01-05T17:55:12.558Z,101534.69
2023-01-05T17:57:39.979Z,101543.41
2023-01-05T18:00:11.283Z,101551.56
2023-01-05T18:02:38.614Z,101551.50
2023-01-05T18:05:06.796Z,101552.50
2023-01-05T18:07:33.904Z,101563.81
2023-01-05T18:10:01.128Z,101557.66
2023-01-05T18:12:28.337Z,101567.44
2023-01-05T18:14:55.492Z,101570.97
2023-01-05T18:17:22.745Z,101575.19
2023-01-05T18:19:49.514Z,101577.84
2023-01-05T18:22:16.474Z,101575.56
2023-01-05T18:24:43.248Z,101576.28
2023-01-05T18:27:10.614Z,101587.22
2023-01-05T18:29:38.548Z,101596.00
2023-01-05T18:32:06.253Z,101591.63
2023-01-05T18:34:33.480Z,101588.88
2023-01-05T18:37:06.043Z,101577.22
2023-01-05T18:39:39.335Z,101589.69
2023-01-05T18:42:06.174Z,101598.47
2023-01-05T18:44:33.007Z,101586.91
2023-01-05T18:46:59.859Z,101593.31
2023-01-05T18:49:26.945Z,101591.28
2023-01-05T18:51:53.754Z,101595.41
2023-01-05T18:54:20.949Z,101613.66
2023-01-05T18:56:47.609Z,101612.69
2023-01-05T18:59:14.490Z,101621.53
2023-01-05T19:01:43.265Z,101611.16
2023-01-05T19:04:12.433Z,101622.63
2023-01-05T19:06:39.729Z,101636.56
2023-01-05T19:09:09.136Z,101618.94
2023-01-05T19:11:36.811Z,101634.03
2023-01-05T19:14:05.251Z,101635.84
2023-01-05T19:16:34.065Z,101633.09
2023-01-05T19:19:05.214Z,101631.06
2023-01-05T19:21:33.759Z,101639.06
2023-01-05T19:24:01.800Z,101635.06
2023-01-05T19:26:31.636Z,101642.72
2023-01-05T19:28:59.834Z,101642.69
2023-01-05T19:31:28.201Z,101637.00
2023-01-05T19:33:59.050Z,101641.06
2023-01-05T19:36:32.572Z,101646.38
2023-01-05T19:39:01.103Z,101649.75
2023-01-05T19:41:29.005Z,101656.00
2023-01-05T19:43:56.533Z,101659.50
2023-01-05T19:46:25.313Z,101662.19
2023-01-05T19:48:52.322Z,101646.38
2023-01-05T19:51:23.454Z,101656.44
2023-01-05T19:53:58.837Z,101659.84
2023-01-05T19:56:28.243Z,101674.13
2023-01-05T19:58:57.640Z,101674.19
2023-01-05T20:01:25.505Z,101680.38
2023-01-05T20:03:52.617Z,101688.34
2023-01-05T20:06:22.189Z,101686.56
2023-01-05T20:08:52.788Z,101694.53
2023-01-05T20:11:35.948Z,101696.38
2023-01-05T20:14:09.190Z,101706.16
2023-01-05T20:16:36.762Z,101703.41
2023-01-05T20:19:03.903Z,101709.66
2023-01-05T20:21:32.565Z,101705.22
2023-01-05T20:24:03.508Z,101713.13
2023-01-05T20:26:31.372Z,101705.19
2023-01-05T20:29:01.733Z,101711.44
2023-01-05T20:31:54.673Z,101714.97
2023-01-05T20:34:23.311Z,101717.63
2023-01-05T20:36:50.209Z,101726.66
2023-01-05T20:39:18.894Z,101730.06
2023-01-05T20:41:47.761Z,101737.97
2023-01-05T20:44:15.583Z,101737.16
2023-01-05T20:46:46.500Z,101732.69
2023-01-05T20:49:13.911Z,101733.91
2023-01-05T20:51:41.044Z,101742.63
2023-01-05T20:54:11.207Z,101742.59
2023-01-05T20:56:39.842Z,101745.22
2023-01-05T20:59:09.142Z,101749.56
2023-01-05T21:01:36.292Z,101753.09
2023-01-05T21:04:04.453Z,101745.16
2023-01-05T21:06:31.534Z,101754.00
2023-01-05T21:08:58.566Z,101756.72
2023-01-05T21:11:26.230Z,101755.00
2023-01-05T21:13:57.264Z,101759.47
2023-01-05T21:16:25.724Z,101761.25
2023-01-05T21:18:52.963Z,101752.50
2023-01-05T21:21:21.294Z,101764.03
2023-01-05T21:23:49.547Z,101764.97
2023-01-05T21:26:17.041Z,101765.00
2023-01-05T21:28:45.287Z,101776.53
2023-01-05T21:31:14.317Z,101772.16
2023-01-05T21:33:41.747Z,101781.06
2023-01-05T21:36:13.440Z,101776.66
2023-01-05T21:39:00.362Z,101774.00
2023-01-05T21:41:46.344Z,101778.44
2023-01-05T21:44:14.622Z,101773.16
2023-01-05T21:46:42.459Z,101775.81
2023-01-05T21:49:10.086Z,101781.16
2023-01-05T21:51:55.848Z,101769.72
2023-01-05T21:54:41.669Z,101774.16
2023-01-05T21:57:08.810Z,101772.34
2023-01-05T21:59:35.717Z,101766.13
2023-01-05T22:02:02.604Z,101764.44
2023-01-05T22:04:29.555Z,101760.88
2023-01-05T22:06:56.191Z,101775.00
2023-01-05T22:09:23.015Z,101779.44
2023-01-05T22:11:50.045Z,101774.13
2023-01-05T22:14:16.792Z,101779.44
2023-01-05T22:16:43.638Z,101779.44
2023-01-05T22:19:11.235Z,101783.91
2023-01-05T22:21:38.195Z,101777.72
2023-01-05T22:24:05.748Z,101783.91
2023-01-05T22:26:32.670Z,101790.97
2023-01-05T22:28:59.441Z,101796.25
2023-01-05T22:31:28.662Z,101807.75
2023-01-05T22:33:57.942Z,101810.41
2023-01-05T22:36:25.847Z,101808.63
2023-01-05T22:38:53.548Z,101808.59
2023-01-05T22:41:25.356Z,101813.91
2023-01-05T22:43:52.108Z,101817.44
2023-01-05T22:46:20.835Z,101814.75
2023-01-05T22:48:49.398Z,101805.94
2023-01-05T22:51:24.800Z,101809.47
2023-01-05T22:53:52.017Z,101813.91
2023-01-05T22:56:21.254Z,101811.25
2023-01-05T22:58:48.279Z,101807.69
2023-01-05T23:01:19.934Z,101804.16
2023-01-05T23:03:46.994Z,101801.50
2023-01-05T23:06:14.111Z,101812.09
2023-01-05T23:08:42.058Z,101808.56
2023-01-05T23:11:14.432Z,101818.25
2023-01-05T23:13:42.217Z,101817.34
2023-01-05T23:16:09.574Z,101812.00
2023-01-05T23:18:37.440Z,101819.09
2023-01-05T23:21:07.533Z,101829.66
2023-01-05T23:23:34.764Z,101826.13
2023-01-05T23:26:01.785Z,101832.31
2023-01-05T23:28:29.343Z,101826.06
2023-01-05T23:30:57.530Z,101815.50
2023-01-05T23:33:26.572Z,101818.16
2023-01-05T23:35:54.333Z,101823.44
2023-01-05T23:38:22.438Z,101824.38
2023-01-05T23:40:51.143Z,101808.50
2023-01-05T23:43:20.615Z,101809.34
2023-01-05T23:45:47.633Z,101798.81
2023-01-05T23:48:14.886Z,101796.16
2023-01-05T23:50:46.549Z,101790.00
2023-01-05T23:53:13.455Z,101789.16
2023-01-05T23:55:40.962Z,101789.16
2023-01-05T23:58:08.296Z,101782.09
